Marshfield, Massachusetts
Current Conditions -  °F | °C
As of 5:52 PM on Tuesday 21 Oct 2014 (Local Time) from KPYM Reporting Station
Broken Clouds Broken Clouds  
Wind Chill: 59°   Ceiling: 1500
Heat Index: 59°   Visibility: 10mi
Dew Point: 57°   Wind: 0mph
Humidity: 93%   Direction: NA
Pressure: 29.91"   Gusts: NA
Location:  42.09°N, 70.71°W
Report Text: KPYM 212152Z AUTO 00000KT 10SM BKN015 15/14 A2991 RMK AO2 SLP128 T01500139
Loading
Personal Weather Stations






























Interactive Weather Map
Tropical Storm Tracking
New forecast layout! Learn more

10-Day Weather Forecast

Advertisements
Track Severe Weather on mobile